createdAt,value
2022-08-28T00:01:28.788Z,66.91
2022-08-28T00:04:12.038Z,67.30
2022-08-28T00:06:55.217Z,67.19
2022-08-28T00:09:39.876Z,67.19
2022-08-28T00:12:23.129Z,67.58
2022-08-28T00:15:10.281Z,67.29
2022-08-28T00:17:56.455Z,67.93
2022-08-28T00:20:40.572Z,67.52
2022-08-28T00:23:25.441Z,68.31
2022-08-28T00:26:35.520Z,68.51
2022-08-28T00:29:18.668Z,68.77
2022-08-28T00:32:01.910Z,69.02
2022-08-28T00:34:45.090Z,69.70
2022-08-28T00:37:28.606Z,69.88
2022-08-28T00:40:13.227Z,69.25
2022-08-28T00:42:59.132Z,68.32
2022-08-28T00:45:42.332Z,67.81
2022-08-28T00:48:25.480Z,68.08
2022-08-28T00:51:28.544Z,68.32
2022-08-28T00:54:11.780Z,69.78
2022-08-28T00:56:56.465Z,70.43
2022-08-28T00:59:41.092Z,70.91
2022-08-28T01:02:24.354Z,69.64
2022-08-28T01:05:10.113Z,69.92
2022-08-28T01:07:54.223Z,70.22
2022-08-28T01:10:37.527Z,70.15
2022-08-28T01:13:21.628Z,70.35
2022-08-28T01:16:07.655Z,71.01
2022-08-28T01:18:52.885Z,70.77
2022-08-28T01:21:43.028Z,71.27
2022-08-28T01:24:29.300Z,72.26
2022-08-28T01:27:12.804Z,72.29
2022-08-28T01:29:57.675Z,72.85
2022-08-28T01:32:44.104Z,72.66
2022-08-28T01:35:30.225Z,72.50
2022-08-28T01:38:14.272Z,72.46
2022-08-28T01:41:05.174Z,72.16
2022-08-28T01:43:48.938Z,72.05
2022-08-28T01:46:32.532Z,72.03
2022-08-28T01:49:17.443Z,72.55
2022-08-28T01:52:00.835Z,72.55
2022-08-28T01:54:46.597Z,73.15
2022-08-28T01:57:31.151Z,72.58
2022-08-28T02:00:15.718Z,72.57
2022-08-28T02:03:00.967Z,73.02
2022-08-28T02:05:44.116Z,72.68
2022-08-28T02:08:27.287Z,72.83
2022-08-28T02:11:10.957Z,73.30
2022-08-28T02:13:56.363Z,73.21
2022-08-28T02:16:39.626Z,73.04
2022-08-28T02:19:22.828Z,73.37
2022-08-28T02:22:08.356Z,73.39
2022-08-28T02:24:51.581Z,74.00
2022-08-28T02:27:34.646Z,74.02
2022-08-28T02:30:19.977Z,74.14
2022-08-28T02:33:06.151Z,74.51
2022-08-28T02:35:49.478Z,74.61
2022-08-28T02:38:33.026Z,74.46
2022-08-28T02:41:16.210Z,74.31
2022-08-28T02:43:59.626Z,75.54
2022-08-28T02:46:44.214Z,75.77
2022-08-28T02:49:31.274Z,75.79
2022-08-28T02:52:19.994Z,76.43
2022-08-28T02:55:04.379Z,77.20
2022-08-28T02:57:47.568Z,77.18
2022-08-28T03:00:30.778Z,77.84
2022-08-28T03:03:15.356Z,78.34
2022-08-28T03:05:58.556Z,78.17
2022-08-28T03:08:42.910Z,78.19
2022-08-28T03:11:26.052Z,78.15
2022-08-28T03:14:09.452Z,78.31
2022-08-28T03:16:52.823Z,78.29
2022-08-28T03:19:37.409Z,77.65
2022-08-28T03:22:42.054Z,78.12
2022-08-28T03:25:27.989Z,78.43
2022-08-28T03:28:11.302Z,78.22
2022-08-28T03:30:54.810Z,78.00
2022-08-28T03:33:38.021Z,77.24
2022-08-28T03:36:29.100Z,76.69
2022-08-28T03:39:13.901Z,76.44
2022-08-28T03:41:57.064Z,77.73
2022-08-28T03:44:40.572Z,77.60
2022-08-28T03:47:24.707Z,77.66
2022-08-28T03:50:11.432Z,77.19
2022-08-28T03:52:55.968Z,77.90
2022-08-28T03:55:41.364Z,77.59
2022-08-28T03:58:25.204Z,77.12
2022-08-28T04:01:08.446Z,76.76
2022-08-28T04:03:51.770Z,77.27
2022-08-28T04:06:36.159Z,77.27
2022-08-28T04:09:20.891Z,77.93
2022-08-28T04:12:04.466Z,78.12
2022-08-28T04:14:47.730Z,77.80
2022-08-28T04:17:30.894Z,77.24
2022-08-28T04:20:14.832Z,77.17
2022-08-28T04:22:58.000Z,77.39
2022-08-28T04:25:44.930Z,77.11
2022-08-28T04:28:28.765Z,77.24
2022-08-28T04:31:12.416Z,76.89
2022-08-28T04:33:57.363Z,76.92
2022-08-28T04:36:41.292Z,77.06
2022-08-28T04:39:24.591Z,77.60
2022-08-28T04:42:09.373Z,76.93
2022-08-28T04:44:56.510Z,76.45
2022-08-28T04:47:40.376Z,75.41
2022-08-28T04:50:23.563Z,74.83
2022-08-28T04:53:06.751Z,76.26
2022-08-28T04:55:54.676Z,74.98
2022-08-28T04:58:42.610Z,74.55
2022-08-28T05:01:26.444Z,74.24
2022-08-28T05:04:11.378Z,74.46
2022-08-28T05:06:54.908Z,73.64
2022-08-28T05:09:38.174Z,71.17
2022-08-28T05:12:21.401Z,70.64
2022-08-28T05:15:07.212Z,70.72
2022-08-28T05:17:50.508Z,69.28
2022-08-28T05:20:36.715Z,69.96
2022-08-28T05:23:19.874Z,69.06
2022-08-28T05:26:05.544Z,68.09
2022-08-28T05:28:49.723Z,67.60
2022-08-28T05:31:36.132Z,66.96
2022-08-28T05:34:19.301Z,67.00
2022-08-28T05:37:02.688Z,67.06
2022-08-28T05:39:48.256Z,67.75
2022-08-28T05:42:33.913Z,69.13
2022-08-28T05:45:22.587Z,68.51
2022-08-28T05:48:07.409Z,67.41
2022-08-28T05:50:50.607Z,66.52
2022-08-28T05:53:36.161Z,65.25
2022-08-28T05:56:22.033Z,63.74
2022-08-28T05:59:06.899Z,63.66
2022-08-28T06:01:51.051Z,63.12
2022-08-28T06:04:36.443Z,63.42
2022-08-28T06:07:19.975Z,60.89
2022-08-28T06:10:05.950Z,58.45
2022-08-28T06:12:51.395Z,57.56
2022-08-28T06:15:36.111Z,54.88
2022-08-28T06:18:19.632Z,56.85
2022-08-28T06:21:04.338Z,56.60
2022-08-28T06:23:47.487Z,55.08
2022-08-28T06:26:30.729Z,52.58
2022-08-28T06:29:21.150Z,52.98
2022-08-28T06:32:05.783Z,52.29
2022-08-28T06:34:49.143Z,48.56
2022-08-28T06:37:33.797Z,43.35
2022-08-28T06:40:17.243Z,37.43
2022-08-28T06:43:00.491Z,34.33
2022-08-28T06:45:46.188Z,31.54
2022-08-28T06:48:29.968Z,29.24
2022-08-28T06:51:16.038Z,27.02
2022-08-28T06:54:00.643Z,27.07
2022-08-28T06:56:44.539Z,26.95
2022-08-28T06:59:27.796Z,26.68
2022-08-28T07:02:11.174Z,28.08
2022-08-28T07:04:55.328Z,24.88
2022-08-28T07:07:38.705Z,24.24
2022-08-28T07:10:23.402Z,22.88
2022-08-28T07:13:06.639Z,21.83
2022-08-28T07:15:49.845Z,20.00
2022-08-28T07:18:33.172Z,24.10
2022-08-28T07:21:16.344Z,23.99
2022-08-28T07:23:59.533Z,24.10
2022-08-28T07:26:44.787Z,23.51
2022-08-28T07:29:27.934Z,24.46
2022-08-28T07:32:11.365Z,22.52
2022-08-28T07:34:56.398Z,18.26
2022-08-28T07:37:40.857Z,17.58
2022-08-28T07:40:24.289Z,18.27
2022-08-28T07:43:27.028Z,17.17
2022-08-28T07:46:12.775Z,18.03
2022-08-28T07:48:57.985Z,20.10
2022-08-28T07:51:43.263Z,18.09
2022-08-28T07:54:30.534Z,16.68
2022-08-28T07:57:15.723Z,15.64
2022-08-28T08:00:00.676Z,15.29
2022-08-28T08:02:46.229Z,13.07
2022-08-28T08:05:29.459Z,15.07
2022-08-28T08:08:13.837Z,13.84
2022-08-28T08:11:03.751Z,16.10
2022-08-28T08:13:50.873Z,16.60
2022-08-28T08:16:39.162Z,13.98
2022-08-28T08:19:23.571Z,13.55
2022-08-28T08:22:07.582Z,12.78
2022-08-28T08:24:51.206Z,14.41
2022-08-28T08:27:38.789Z,14.37
2022-08-28T08:30:25.486Z,16.32
2022-08-28T08:33:14.109Z,17.27
2022-08-28T08:35:57.728Z,15.08
2022-08-28T08:38:42.597Z,14.12
2022-08-28T08:41:31.489Z,13.76
2022-08-28T08:44:33.825Z,11.13
2022-08-28T08:47:22.914Z,13.09
2022-08-28T08:50:13.389Z,13.31
2022-08-28T08:53:15.339Z,15.09
2022-08-28T08:56:00.323Z,12.42
2022-08-28T08:58:47.430Z,13.32
2022-08-28T09:22:37.755Z,12.88
2022-08-28T09:25:54.421Z,12.83
2022-08-28T09:28:41.660Z,12.74
2022-08-28T09:31:37.647Z,12.32
2022-08-28T09:34:28.474Z,10.31
2022-08-28T09:37:26.918Z,9.09
2022-08-28T09:40:24.426Z,11.03
2022-08-28T09:43:30.205Z,13.09
2022-08-28T09:46:22.255Z,10.54
2022-08-28T09:49:10.872Z,12.12
2022-08-28T09:51:54.397Z,9.72
2022-08-28T09:54:44.807Z,9.60
2022-08-28T09:57:29.305Z,10.01
2022-08-28T10:00:13.373Z,8.74
2022-08-28T10:03:08.546Z,8.78
2022-08-28T10:06:04.353Z,8.21
2022-08-28T10:09:02.765Z,10.07
2022-08-28T10:11:54.096Z,9.71
2022-08-28T10:14:52.621Z,9.89
2022-08-28T10:17:46.044Z,9.69
2022-08-28T10:20:48.701Z,7.87
2022-08-28T10:23:41.291Z,6.70
2022-08-28T10:26:34.996Z,8.41
2022-08-28T10:29:34.521Z,8.77
2022-08-28T10:32:33.971Z,7.98
2022-08-28T10:35:22.785Z,7.14
2022-08-28T10:38:11.747Z,7.72
2022-08-28T10:41:01.119Z,8.36
2022-08-28T10:43:48.282Z,9.58
2022-08-28T10:46:36.995Z,7.95
2022-08-28T10:49:26.517Z,8.02
2022-08-28T10:52:13.609Z,8.27
2022-08-28T10:55:07.366Z,8.13
2022-08-28T10:57:54.277Z,7.33
2022-08-28T11:00:38.592Z,8.22
2022-08-28T11:03:34.322Z,9.49
2022-08-28T11:06:30.577Z,7.77
2022-08-28T11:09:27.411Z,9.80
2022-08-28T11:12:39.103Z,9.83
2022-08-28T11:15:54.581Z,11.07
2022-08-28T11:18:53.433Z,13.73
2022-08-28T11:21:46.546Z,15.95
2022-08-28T11:24:44.185Z,17.94
2022-08-28T11:27:31.469Z,19.50
2022-08-28T11:30:35.651Z,20.35
2022-08-28T11:33:40.361Z,20.75
2022-08-28T11:36:59.969Z,20.86
2022-08-28T11:39:43.159Z,22.00
2022-08-28T11:42:36.131Z,21.81
2022-08-28T11:45:21.807Z,23.27
2022-08-28T11:48:05.782Z,22.86
2022-08-28T11:50:57.162Z,23.06
2022-08-28T11:53:52.926Z,22.59
2022-08-28T11:56:52.886Z,25.25
2022-08-28T12:00:04.996Z,25.17
2022-08-28T12:03:13.425Z,24.67
2022-08-28T12:05:58.115Z,24.79
2022-08-28T12:09:13.249Z,25.33
2022-08-28T12:12:02.769Z,24.79
2022-08-28T12:15:07.879Z,23.45
2022-08-28T12:17:54.577Z,22.47
2022-08-28T12:21:00.677Z,22.97
2022-08-28T12:23:45.523Z,23.05
2022-08-28T12:26:36.016Z,22.40
2022-08-28T12:29:30.602Z,24.33
2022-08-28T12:32:32.537Z,23.63
2022-08-28T12:35:21.815Z,21.59
2022-08-28T12:38:07.912Z,22.32
2022-08-28T12:40:53.447Z,22.16
2022-08-28T12:43:44.316Z,22.37
2022-08-28T12:46:33.083Z,22.02
2022-08-28T12:49:34.058Z,22.54
2022-08-28T12:52:20.590Z,24.04
2022-08-28T12:55:03.766Z,24.53
2022-08-28T12:57:48.038Z,23.17
2022-08-28T13:00:37.181Z,22.79
2022-08-28T13:03:21.173Z,22.94
2022-08-28T13:06:07.362Z,21.96
2022-08-28T13:08:51.122Z,22.52
2022-08-28T13:11:38.626Z,22.73
2022-08-28T13:14:38.175Z,23.32
2022-08-28T13:17:47.491Z,22.37
2022-08-28T13:20:33.503Z,21.37
2022-08-28T13:23:29.960Z,22.52
2022-08-28T13:26:14.006Z,23.22
2022-08-28T13:28:59.370Z,23.73
2022-08-28T13:31:44.059Z,23.30
2022-08-28T13:34:30.281Z,24.43
2022-08-28T13:37:44.643Z,24.31
2022-08-28T13:40:56.269Z,23.76
2022-08-28T13:43:47.624Z,24.35
2022-08-28T13:46:31.170Z,25.06
2022-08-28T13:49:14.282Z,24.28
2022-08-28T13:52:01.119Z,23.83
2022-08-28T13:54:45.532Z,24.60
2022-08-28T13:57:29.098Z,23.05
2022-08-28T14:00:14.849Z,23.20
2022-08-28T14:03:15.784Z,23.78
2022-08-28T14:05:59.052Z,23.51
2022-08-28T14:08:45.389Z,24.93
2022-08-28T14:11:28.560Z,24.89
2022-08-28T14:14:12.152Z,25.75
2022-08-28T14:16:56.187Z,26.01
2022-08-28T14:19:39.488Z,25.29
2022-08-28T14:22:22.636Z,24.39
2022-08-28T14:25:09.432Z,24.49
2022-08-28T14:27:52.700Z,24.92
2022-08-28T14:30:36.551Z,24.67
2022-08-28T14:33:20.840Z,25.56
2022-08-28T14:36:05.583Z,25.01
2022-08-28T14:38:53.698Z,25.19
2022-08-28T14:41:38.969Z,24.71
2022-08-28T14:44:24.423Z,23.87
2022-08-28T14:47:07.832Z,23.80
2022-08-28T14:49:53.666Z,23.90
2022-08-28T14:52:37.567Z,23.21
2022-08-28T14:55:21.533Z,23.30
2022-08-28T14:58:06.220Z,23.31
2022-08-28T15:00:52.600Z,23.32
2022-08-28T15:03:35.999Z,23.68
2022-08-28T15:06:20.147Z,23.68
2022-08-28T15:09:03.514Z,23.63
2022-08-28T15:11:47.169Z,23.89
2022-08-28T15:14:31.959Z,23.15
2022-08-28T15:17:15.195Z,23.15
2022-08-28T15:20:00.551Z,23.10
2022-08-28T15:22:43.994Z,23.39
2022-08-28T15:25:27.281Z,23.33
2022-08-28T15:28:10.718Z,23.48
2022-08-28T15:30:55.441Z,23.50
2022-08-28T15:33:43.316Z,23.30
2022-08-28T15:36:28.789Z,23.86
2022-08-28T15:39:30.087Z,25.14
2022-08-28T15:42:13.771Z,26.10
2022-08-28T15:44:57.631Z,26.91
2022-08-28T15:47:45.056Z,27.05
2022-08-28T15:50:28.474Z,27.23
2022-08-28T15:53:11.808Z,29.61
2022-08-28T15:55:55.026Z,29.34
2022-08-28T15:58:38.521Z,29.68
2022-08-28T16:01:22.747Z,28.99
2022-08-28T16:04:08.038Z,29.69
2022-08-28T16:07:00.629Z,30.33
2022-08-28T16:09:44.180Z,31.04
2022-08-28T16:12:27.408Z,31.89
2022-08-28T16:15:11.871Z,31.77
2022-08-28T16:17:55.026Z,33.07
2022-08-28T16:20:40.667Z,33.38
2022-08-28T16:23:24.090Z,33.34
2022-08-28T16:26:09.040Z,33.63
2022-08-28T16:28:52.226Z,33.46
2022-08-28T16:31:35.377Z,34.91
2022-08-28T16:34:19.483Z,34.76
2022-08-28T16:37:04.390Z,35.31
2022-08-28T16:39:47.698Z,36.31
2022-08-28T16:42:32.845Z,36.26
2022-08-28T16:45:16.990Z,36.76
2022-08-28T16:48:00.726Z,37.00
2022-08-28T16:50:45.670Z,37.51
2022-08-28T16:53:31.228Z,38.00
2022-08-28T16:56:16.162Z,38.18
2022-08-28T16:59:10.497Z,39.08
2022-08-28T17:01:54.620Z,39.99
2022-08-28T17:04:38.092Z,40.03
2022-08-28T17:07:24.420Z,40.21
2022-08-28T17:10:11.202Z,40.85
2022-08-28T17:12:54.590Z,42.62
2022-08-28T17:15:38.200Z,41.15
2022-08-28T17:18:21.713Z,41.03
2022-08-28T17:21:22.890Z,40.41
2022-08-28T17:24:06.925Z,40.54
2022-08-28T17:26:51.634Z,41.04
2022-08-28T17:29:35.398Z,40.85
2022-08-28T17:32:18.551Z,41.07
2022-08-28T17:35:01.830Z,41.45
2022-08-28T17:37:46.306Z,41.20
2022-08-28T17:40:30.021Z,41.40
2022-08-28T17:43:15.089Z,41.82
2022-08-28T17:45:58.634Z,41.89
2022-08-28T17:48:41.845Z,42.29
2022-08-28T17:51:43.607Z,42.76
2022-08-28T17:54:27.422Z,43.01
2022-08-28T17:57:10.601Z,43.72
2022-08-28T17:59:55.704Z,43.37
2022-08-28T18:02:39.461Z,43.74
2022-08-28T18:05:23.070Z,43.79
2022-08-28T18:08:06.672Z,44.39
2022-08-28T18:10:50.949Z,45.15
2022-08-28T18:13:34.559Z,45.21
2022-08-28T18:16:19.555Z,45.75
2022-08-28T18:19:04.099Z,46.44
2022-08-28T18:21:47.378Z,46.33
2022-08-28T18:24:32.593Z,46.66
2022-08-28T18:27:15.744Z,47.00
2022-08-28T18:29:59.026Z,47.33
2022-08-28T18:32:43.576Z,47.17
2022-08-28T18:35:32.069Z,47.44
2022-08-28T18:38:16.782Z,48.05
2022-08-28T18:41:00.123Z,48.92
2022-08-28T18:43:43.256Z,47.70
2022-08-28T18:46:26.482Z,48.03
2022-08-28T18:49:14.361Z,49.42
2022-08-28T18:51:57.540Z,48.88
2022-08-28T18:54:40.961Z,49.05
2022-08-28T18:57:26.179Z,48.78
2022-08-28T19:00:10.610Z,49.29
2022-08-28T19:02:54.267Z,49.77
2022-08-28T19:05:39.944Z,50.15
2022-08-28T19:08:23.415Z,50.05
2022-08-28T19:11:09.415Z,50.24
2022-08-28T19:13:52.798Z,50.82
2022-08-28T19:16:36.405Z,51.21
2022-08-28T19:19:19.569Z,51.03
2022-08-28T19:22:04.389Z,51.55
2022-08-28T19:24:47.687Z,51.63
2022-08-28T19:27:30.935Z,51.84
2022-08-28T19:30:16.408Z,51.72
2022-08-28T19:33:00.710Z,52.00
2022-08-28T19:35:44.033Z,51.93
2022-08-28T19:38:30.800Z,52.17
2022-08-28T19:41:15.235Z,51.87
2022-08-28T19:43:58.579Z,52.46
2022-08-28T19:46:42.076Z,52.87
2022-08-28T19:49:25.241Z,52.92
2022-08-28T19:52:08.850Z,53.06
2022-08-28T19:54:53.307Z,53.44
2022-08-28T19:57:38.695Z,53.83
2022-08-28T20:00:24.032Z,53.79
2022-08-28T20:03:07.134Z,53.96
2022-08-28T20:05:50.482Z,54.12
2022-08-28T20:08:34.252Z,54.59
2022-08-28T20:11:24.633Z,54.46
2022-08-28T20:14:07.859Z,55.09
2022-08-28T20:16:52.793Z,54.95
2022-08-28T20:19:36.034Z,55.01
2022-08-28T20:22:19.224Z,55.62
2022-08-28T20:25:02.429Z,55.74
2022-08-28T20:27:47.155Z,55.61
2022-08-28T20:30:30.679Z,55.67
2022-08-28T20:33:14.277Z,55.95
2022-08-28T20:36:01.504Z,56.08
2022-08-28T20:38:44.586Z,55.95
2022-08-28T20:41:28.509Z,56.08
2022-08-28T20:44:15.508Z,55.86
2022-08-28T20:46:58.560Z,56.12
2022-08-28T20:49:41.683Z,56.02
2022-08-28T20:52:24.782Z,56.28
2022-08-28T20:55:09.366Z,56.10
2022-08-28T20:57:52.549Z,56.30
2022-08-28T21:00:37.077Z,56.64
2022-08-28T21:03:20.417Z,56.38
2022-08-28T21:06:10.330Z,56.28
2022-08-28T21:08:53.624Z,56.76
2022-08-28T21:11:36.881Z,56.84
2022-08-28T21:14:20.535Z,57.01
2022-08-28T21:17:05.565Z,56.96
2022-08-28T21:19:51.560Z,57.12
2022-08-28T21:22:36.146Z,57.33
2022-08-28T21:25:20.667Z,57.35
2022-08-28T21:28:06.049Z,57.43
2022-08-28T21:30:49.285Z,57.43
2022-08-28T21:33:33.825Z,58.00
2022-08-28T21:36:18.743Z,58.19
2022-08-28T21:39:01.884Z,58.30
2022-08-28T21:41:44.981Z,58.47
2022-08-28T21:44:28.082Z,59.09
2022-08-28T21:47:11.220Z,58.72
2022-08-28T21:49:57.855Z,58.84
2022-08-28T21:52:41.275Z,58.79
2022-08-28T21:55:25.003Z,59.33
2022-08-28T21:58:08.080Z,59.22
2022-08-28T22:00:56.897Z,59.40
2022-08-28T22:03:40.054Z,59.31
2022-08-28T22:06:26.382Z,59.23
2022-08-28T22:09:10.203Z,59.27
2022-08-28T22:11:53.517Z,59.77
2022-08-28T22:14:36.798Z,60.15
2022-08-28T22:17:20.001Z,60.32
2022-08-28T22:20:03.516Z,59.77
2022-08-28T22:23:05.659Z,59.84
2022-08-28T22:25:48.849Z,60.33
2022-08-28T22:28:32.004Z,60.51
2022-08-28T22:31:15.511Z,60.69
2022-08-28T22:34:01.783Z,60.25
2022-08-28T22:36:44.956Z,60.25
2022-08-28T22:39:29.441Z,60.49
2022-08-28T22:42:12.683Z,60.53
2022-08-28T22:44:55.763Z,60.88
2022-08-28T22:47:39.661Z,60.79
2022-08-28T22:50:22.721Z,60.75
2022-08-28T22:53:06.333Z,60.95
2022-08-28T22:55:50.840Z,61.27
2022-08-28T22:58:34.559Z,61.92
2022-08-28T23:01:21.800Z,61.22
2022-08-28T23:04:06.125Z,62.01
2022-08-28T23:06:49.867Z,61.32
2022-08-28T23:09:33.909Z,61.67
2022-08-28T23:12:20.626Z,61.99
2022-08-28T23:15:06.258Z,62.29
2022-08-28T23:17:50.194Z,62.33
2022-08-28T23:20:34.233Z,62.26
2022-08-28T23:23:18.461Z,62.50
2022-08-28T23:26:01.837Z,62.36
2022-08-28T23:28:46.334Z,62.25
2022-08-28T23:31:29.453Z,62.71
2022-08-28T23:34:12.555Z,62.53
2022-08-28T23:36:56.201Z,62.82
2022-08-28T23:39:41.963Z,63.17
2022-08-28T23:42:25.045Z,63.27
2022-08-28T23:45:13.074Z,63.52
2022-08-28T23:47:56.207Z,63.24
2022-08-28T23:50:41.669Z,63.57
2022-08-28T23:53:25.049Z,63.73
2022-08-28T23:56:08.594Z,63.62
2022-08-28T23:58:54.170Z,63.89
